createdAt,value
2019-03-28T00:00:42.931Z,76.72
2019-03-28T00:05:48.296Z,76.72
2019-03-28T00:10:53.838Z,77.13
2019-03-28T00:15:59.103Z,76.93
2019-03-28T00:21:05.069Z,77.04
2019-03-28T00:26:10.507Z,76.72
2019-03-28T00:31:17.026Z,76.77
2019-03-28T00:36:22.387Z,76.62
2019-03-28T00:41:28.035Z,76.57
2019-03-28T00:46:33.398Z,76.59
2019-03-28T00:51:39.564Z,76.56
2019-03-28T00:56:47.263Z,76.61
2019-03-28T01:01:52.242Z,77.10
2019-03-28T01:06:57.606Z,76.94
2019-03-28T01:12:02.974Z,76.79
2019-03-28T01:17:09.136Z,76.68
2019-03-28T01:22:14.496Z,76.40
2019-03-28T01:27:19.828Z,76.57
2019-03-28T01:32:25.300Z,76.20
2019-03-28T01:37:30.782Z,75.95
2019-03-28T01:42:36.217Z,75.83
2019-03-28T01:47:41.503Z,75.92
2019-03-28T01:52:47.503Z,75.91
2019-03-28T01:57:53.351Z,75.62
2019-03-28T02:02:58.612Z,75.41
2019-03-28T02:08:04.793Z,75.30
2019-03-28T02:13:10.031Z,75.19
2019-03-28T02:18:16.199Z,75.39
2019-03-28T02:23:21.477Z,75.56
2019-03-28T02:28:26.858Z,75.40
2019-03-28T02:33:32.109Z,75.25
2019-03-28T02:38:37.257Z,75.02
2019-03-28T02:43:43.003Z,75.21
2019-03-28T02:48:49.393Z,75.15
2019-03-28T02:53:54.625Z,75.70
2019-03-28T02:58:59.943Z,75.40
2019-03-28T03:04:05.130Z,75.28
2019-03-28T03:09:10.543Z,75.48
2019-03-28T03:14:15.763Z,75.37
2019-03-28T03:19:20.928Z,75.50
2019-03-28T03:24:26.288Z,75.21
2019-03-28T03:29:31.433Z,75.49
2019-03-28T03:34:36.694Z,76.21
2019-03-28T03:39:41.896Z,76.00
2019-03-28T03:44:47.210Z,75.99
2019-03-28T03:49:52.693Z,76.50
2019-03-28T03:54:57.919Z,76.22
2019-03-28T04:00:09.457Z,76.57
2019-03-28T04:05:16.010Z,76.85
2019-03-28T04:10:21.475Z,77.14
2019-03-28T04:15:26.977Z,77.15
2019-03-28T04:20:32.267Z,77.35
2019-03-28T04:25:37.624Z,77.24
2019-03-28T04:30:43.280Z,77.51
2019-03-28T04:35:48.993Z,77.60
2019-03-28T04:40:54.655Z,77.90
2019-03-28T04:46:00.406Z,78.24
2019-03-28T04:51:05.987Z,77.93
2019-03-28T04:56:12.394Z,78.31
2019-03-28T05:01:17.727Z,78.24
2019-03-28T05:06:23.083Z,78.50
2019-03-28T05:11:28.579Z,78.17
2019-03-28T05:16:33.951Z,77.78
2019-03-28T05:21:39.646Z,77.88
2019-03-28T05:26:45.949Z,77.66
2019-03-28T05:31:51.532Z,77.68
2019-03-28T05:36:56.706Z,77.12
2019-03-28T05:42:02.027Z,76.76
2019-03-28T05:47:07.488Z,76.19
2019-03-28T05:52:12.981Z,76.12
2019-03-28T05:57:18.551Z,75.87
2019-03-28T06:02:24.367Z,75.57
2019-03-28T06:07:30.670Z,74.94
2019-03-28T06:12:36.025Z,75.13
2019-03-28T06:17:42.518Z,75.12
2019-03-28T06:22:47.877Z,75.08
2019-03-28T06:27:53.027Z,74.18
2019-03-28T06:32:59.000Z,73.80
2019-03-28T06:38:04.672Z,73.86
2019-03-28T06:43:09.769Z,73.63
2019-03-28T06:48:15.079Z,73.12
2019-03-28T06:53:20.229Z,72.83
2019-03-28T06:58:25.360Z,73.17
2019-03-28T07:03:49.943Z,72.81
2019-03-28T07:08:55.279Z,72.11
2019-03-28T07:14:02.430Z,71.17
2019-03-28T07:19:08.349Z,71.59
2019-03-28T07:24:13.565Z,70.58
2019-03-28T07:29:19.136Z,70.21
2019-03-28T07:34:24.530Z,69.79
2019-03-28T07:39:29.878Z,69.24
2019-03-28T07:44:37.513Z,68.59
2019-03-28T07:49:42.530Z,68.16
2019-03-28T07:54:48.957Z,67.53
2019-03-28T08:00:04.175Z,67.35
2019-03-28T08:05:02.119Z,66.88
2019-03-28T08:10:09.982Z,67.16
2019-03-28T08:15:15.724Z,69.23
2019-03-28T08:20:21.232Z,69.03
2019-03-28T08:25:26.797Z,68.83
2019-03-28T08:30:36.847Z,68.08
2019-03-28T08:35:42.330Z,66.61
2019-03-28T08:40:47.793Z,64.54
2019-03-28T08:45:53.029Z,64.44
2019-03-28T08:50:58.514Z,63.98
2019-03-28T08:56:04.510Z,64.16
2019-03-28T09:01:10.022Z,64.07
2019-03-28T09:06:17.085Z,62.87
2019-03-28T09:11:22.302Z,63.24
2019-03-28T09:16:27.789Z,63.93
2019-03-28T09:21:33.216Z,63.84
2019-03-28T09:26:39.698Z,63.04
2019-03-28T09:31:45.051Z,62.78
2019-03-28T09:36:50.431Z,61.86
2019-03-28T09:41:56.294Z,60.28
2019-03-28T09:47:01.768Z,59.64
2019-03-28T09:52:07.207Z,61.01
2019-03-28T09:57:12.469Z,60.85
2019-03-28T10:02:17.823Z,60.81
2019-03-28T10:07:23.088Z,59.12
2019-03-28T10:12:28.298Z,57.96
2019-03-28T10:17:33.552Z,55.24
2019-03-28T10:22:38.862Z,55.48
2019-03-28T10:27:44.205Z,54.73
2019-03-28T10:32:49.411Z,54.71
2019-03-28T10:37:54.531Z,54.16
2019-03-28T10:42:59.768Z,54.65
2019-03-28T10:48:05.259Z,53.07
2019-03-28T10:53:10.732Z,53.09
2019-03-28T10:58:19.161Z,52.86
2019-03-28T11:03:23.251Z,52.46
2019-03-28T11:08:28.616Z,52.17
2019-03-28T11:13:34.785Z,52.76
2019-03-28T11:18:40.054Z,53.46
2019-03-28T11:23:46.645Z,53.15
2019-03-28T11:28:52.194Z,52.93
2019-03-28T11:33:57.777Z,50.72
2019-03-28T11:39:04.605Z,51.21
2019-03-28T11:44:09.708Z,49.40
2019-03-28T11:49:15.067Z,48.88
2019-03-28T11:54:20.429Z,53.55
2019-03-28T11:59:26.716Z,59.23
2019-03-28T12:04:32.013Z,61.87
2019-03-28T12:09:38.015Z,62.32
2019-03-28T12:14:43.305Z,62.53
2019-03-28T12:19:48.668Z,63.57
2019-03-28T12:24:54.978Z,62.48
2019-03-28T12:30:00.326Z,62.63
2019-03-28T12:35:07.092Z,63.24
2019-03-28T12:40:13.545Z,63.19
2019-03-28T12:45:18.926Z,61.94
2019-03-28T12:50:24.196Z,60.30
2019-03-28T12:55:29.585Z,59.88
2019-03-28T13:00:36.541Z,58.87
2019-03-28T13:05:42.004Z,59.65
2019-03-28T13:10:47.497Z,60.85
2019-03-28T13:15:52.692Z,61.14
2019-03-28T13:21:12.379Z,61.67
2019-03-28T13:26:05.401Z,61.04
2019-03-28T13:31:10.826Z,59.98
2019-03-28T13:36:16.400Z,59.94
2019-03-28T13:41:21.771Z,55.81
2019-03-28T13:46:27.229Z,52.40
2019-03-28T13:51:32.695Z,48.36
2019-03-28T13:56:38.602Z,46.43
2019-03-28T14:01:44.040Z,46.08
2019-03-28T14:06:49.418Z,45.93
2019-03-28T14:11:54.741Z,42.86
2019-03-28T14:17:00.201Z,42.86
2019-03-28T14:22:05.762Z,40.72
2019-03-28T14:27:11.319Z,43.78
2019-03-28T14:32:17.004Z,43.15
2019-03-28T14:37:22.774Z,40.78
2019-03-28T14:42:28.238Z,41.16
2019-03-28T14:47:33.595Z,39.54
2019-03-28T14:52:39.247Z,39.49
2019-03-28T14:57:44.632Z,41.94
2019-03-28T15:02:49.861Z,43.41
2019-03-28T15:07:55.120Z,45.06
2019-03-28T15:13:00.386Z,46.46
2019-03-28T15:18:05.751Z,44.19
2019-03-28T15:23:11.453Z,42.75
2019-03-28T15:28:16.670Z,41.34
2019-03-28T15:33:21.920Z,44.90
2019-03-28T15:38:27.272Z,50.33
2019-03-28T15:43:32.848Z,50.33
2019-03-28T15:48:38.959Z,52.47
2019-03-28T15:53:44.454Z,53.76
2019-03-28T15:58:50.170Z,54.84
2019-03-28T16:03:55.814Z,55.25
2019-03-28T16:09:01.368Z,55.56
2019-03-28T16:14:07.455Z,55.71
2019-03-28T16:19:12.838Z,57.37
2019-03-28T16:24:18.233Z,58.51
2019-03-28T16:29:23.533Z,59.03
2019-03-28T16:34:28.886Z,59.88
2019-03-28T16:39:34.356Z,60.60
2019-03-28T16:44:40.947Z,61.66
2019-03-28T16:49:46.302Z,61.60
2019-03-28T16:54:51.618Z,62.08
2019-03-28T16:59:57.265Z,62.51
2019-03-28T17:05:02.805Z,63.08
2019-03-28T17:10:09.170Z,63.93
2019-03-28T17:15:14.549Z,64.64
2019-03-28T17:20:19.953Z,65.29
2019-03-28T17:25:25.334Z,66.21
2019-03-28T17:30:30.694Z,66.50
2019-03-28T17:35:35.961Z,66.21
2019-03-28T17:40:41.313Z,66.63
2019-03-28T17:45:46.785Z,67.36
2019-03-28T17:50:52.160Z,67.45
2019-03-28T17:55:57.692Z,67.87
2019-03-28T18:01:03.455Z,68.24
2019-03-28T18:06:09.021Z,68.19
2019-03-28T18:11:14.394Z,68.59
2019-03-28T18:16:19.758Z,68.18
2019-03-28T18:21:25.112Z,68.43
2019-03-28T18:26:30.547Z,69.34
2019-03-28T18:31:49.929Z,69.18
2019-03-28T18:36:47.308Z,69.26
2019-03-28T18:41:51.981Z,69.33
2019-03-28T18:46:57.325Z,69.37
2019-03-28T18:52:02.784Z,69.44
2019-03-28T18:57:08.353Z,69.17
2019-03-28T19:02:13.568Z,68.96
2019-03-28T19:07:19.834Z,69.07
2019-03-28T19:12:25.139Z,69.04
2019-03-28T19:17:30.518Z,69.07
2019-03-28T19:22:36.062Z,69.32
2019-03-28T19:27:41.428Z,69.46
2019-03-28T19:32:46.795Z,69.76
2019-03-28T19:37:52.247Z,69.56
2019-03-28T19:42:57.490Z,69.69
2019-03-28T19:48:03.051Z,70.90
2019-03-28T19:53:11.603Z,71.10
2019-03-28T19:58:15.842Z,71.10
2019-03-28T20:03:23.196Z,71.46
2019-03-28T20:08:28.481Z,71.36
2019-03-28T20:13:33.990Z,71.36
2019-03-28T20:18:39.222Z,71.51
2019-03-28T20:23:44.675Z,71.79
2019-03-28T20:28:50.010Z,71.79
2019-03-28T20:33:55.403Z,71.85
2019-03-28T20:39:04.108Z,71.44
2019-03-28T20:44:11.436Z,70.94
2019-03-28T20:49:15.255Z,70.70
2019-03-28T20:54:20.705Z,70.91
2019-03-28T20:59:25.975Z,70.90
2019-03-28T21:04:31.950Z,70.89
2019-03-28T21:09:37.620Z,70.88
2019-03-28T21:14:42.772Z,70.91
2019-03-28T21:19:48.561Z,70.98
2019-03-28T21:24:53.751Z,70.88
2019-03-28T21:29:58.950Z,70.48
2019-03-28T21:35:07.382Z,70.76
2019-03-28T21:40:13.243Z,70.63
2019-03-28T21:45:18.717Z,70.92
2019-03-28T21:50:24.174Z,71.00
2019-03-28T21:55:29.557Z,70.82
2019-03-28T22:00:36.323Z,70.47
2019-03-28T22:05:41.579Z,70.22
2019-03-28T22:10:46.965Z,70.25
2019-03-28T22:15:52.290Z,70.29
2019-03-28T22:20:58.621Z,70.03
2019-03-28T22:26:03.892Z,70.09
2019-03-28T22:31:09.175Z,70.08
2019-03-28T22:36:14.629Z,70.25
2019-03-28T22:41:23.061Z,70.30
2019-03-28T22:46:29.564Z,70.07
2019-03-28T22:51:34.826Z,70.23
2019-03-28T22:56:40.191Z,70.10
2019-03-28T23:01:45.686Z,70.04
2019-03-28T23:06:51.448Z,69.78
2019-03-28T23:11:57.218Z,69.56
2019-03-28T23:17:02.941Z,69.58
2019-03-28T23:22:08.860Z,69.22
2019-03-28T23:27:14.586Z,69.57
2019-03-28T23:32:20.248Z,69.92
2019-03-28T23:37:26.807Z,70.42
2019-03-28T23:42:32.604Z,70.57
2019-03-28T23:47:38.169Z,70.78
2019-03-28T23:52:43.687Z,71.42
2019-03-28T23:57:49.417Z,71.32
